Time;durP1;ratioP1;P1;durP2;ratioP2;P2;SDS_P1;SDS_P2;PMS_P1;PMS_P2;Temp;Humidity;BMP_temperature;BMP_pressure;BME280_temperature;BME280_humidity;BME280_pressure;Samples;Min_cycle;Max_cycle;Signal;HPM_P1;HPM_P2
2023/12/22 04:32:15;;;;;;;;;;;;;;;8.94;74.30;98213.65;106313;1256;68592;-89
2023/12/22 04:34:55;;;;;;;;;;;;;;;8.90;74.37;98212.32;106335;1256;72673;-81
2023/12/22 04:37:29;;;;;;;;;;;;;;;8.97;73.51;98206.79;106227;1254;61233;-89
2023/12/22 04:40:08;;;;;;;;;;;;;;;8.95;73.52;98198.20;106172;1254;61383;-81
2023/12/22 04:42:42;;;;;;;;;;;;;;;8.83;74.61;98203.03;106261;1253;73425;-90
2023/12/22 04:45:10;;;;;;;;;;;;;;;9.00;73.31;98198.80;106401;1253;68295;-84
2023/12/22 04:47:43;;;;;;;;;;;;;;;9.10;72.13;98190.20;106287;1257;72795;-81
2023/12/22 04:50:17;;;;;;;;;;;;;;;9.12;71.94;98188.62;106299;1255;61430;-81
2023/12/22 04:52:51;;;;;;;;;;;;;;;9.07;72.02;98186.03;106267;1253;61205;-90
2023/12/22 04:55:25;;;;;;;;;;;;;;;8.84;73.74;98182.46;106257;1253;74636;-90
2023/12/22 04:57:58;;;;;;;;;;;;;;;8.93;73.37;98178.51;106139;1256;68498;-81
2023/12/22 05:00:38;;;;;;;;;;;;;;;8.94;72.94;98177.80;106217;1255;71159;-90
2023/12/22 05:03:12;;;;;;;;;;;;;;;8.98;72.75;98175.33;106222;1253;59393;-81
2023/12/22 05:05:46;;;;;;;;;;;;;;;9.00;72.65;98180.38;106245;1258;61677;-90
2023/12/22 05:08:20;;;;;;;;;;;;;;;8.96;72.69;98188.22;106257;1254;74674;-89
2023/12/22 05:10:54;;;;;;;;;;;;;;;9.02;72.22;98191.43;106268;1258;66991;-89
2023/12/22 05:13:28;;;;;;;;;;;;;;;9.06;71.73;98181.55;108450;1253;72729;-81
2023/12/22 05:16:01;;;;;;;;;;;;;;;9.02;71.51;98182.46;106441;1253;61359;-80
2023/12/22 05:18:35;;;;;;;;;;;;;;;9.05;70.91;98174.58;106323;1256;61295;-88
2023/12/22 05:21:09;;;;;;;;;;;;;;;9.12;70.21;98172.60;106089;1253;73530;-89
2023/12/22 05:23:42;;;;;;;;;;;;;;;9.12;69.86;98168.08;106442;1258;68437;-89
2023/12/22 05:26:10;;;;;;;;;;;;;;;9.19;69.22;98165.11;106367;1253;72739;-90
2023/12/22 05:28:44;;;;;;;;;;;;;;;9.18;68.51;98154.24;106205;1253;61221;-81
2023/12/22 05:31:19;;;;;;;;;;;;;;;8.87;70.46;98150.45;106390;1253;61318;-80
2023/12/22 05:33:53;;;;;;;;;;;;;;;8.81;71.23;98146.33;106319;1253;74705;-81
2023/12/22 05:36:26;;;;;;;;;;;;;;;8.91;70.84;98145.83;106290;1258;68397;-81
2023/12/22 05:39:00;;;;;;;;;;;;;;;8.91;70.73;98145.52;106254;1258;72720;-84
2023/12/22 05:41:36;;;;;;;;;;;;;;;8.87;70.99;98143.71;106443;1258;61344;-81
2023/12/22 05:44:12;;;;;;;;;;;;;;;8.93;70.84;98136.02;106285;1253;61247;-81
2023/12/22 05:46:46;;;;;;;;;;;;;;;8.78;72.05;98124.71;106229;1253;74647;-81
2023/12/22 05:49:13;;;;;;;;;;;;;;;8.78;72.70;98117.47;106520;1253;67957;-81
2023/12/22 05:51:41;;;;;;;;;;;;;;;8.84;72.37;98118.35;106458;1253;72715;-90
2023/12/22 05:54:15;;;;;;;;;;;;;;;8.84;72.64;98128.48;106647;1253;61300;-90
2023/12/22 05:56:51;;;;;;;;;;;;;;;8.87;72.50;98128.74;106638;1256;61305;-91
2023/12/22 05:59:27;;;;;;;;;;;;;;;9.00;71.75;98124.32;107911;1253;73559;-81
2023/12/22 06:02:07;;;;;;;;;;;;;;;8.97;71.93;98121.39;106488;1253;68370;-81
2023/12/22 06:04:41;;;;;;;;;;;;;;;9.10;71.50;98119.42;106589;1258;72778;-89
2023/12/22 06:07:14;;;;;;;;;;;;;;;9.04;71.96;98118.33;106802;1256;61240;-90
2023/12/22 06:09:54;;;;;;;;;;;;;;;9.09;71.60;98117.13;106426;1253;61223;-82
2023/12/22 06:12:27;;;;;;;;;;;;;;;9.01;71.90;98118.77;106449;1253;73465;-90
2023/12/22 06:15:01;;;;;;;;;;;;;;;9.11;71.64;98116.45;106725;1253;67603;-90
2023/12/22 06:17:35;;;;;;;;;;;;;;;9.15;71.03;98127.12;107395;1253;73030;-91
2023/12/22 06:20:09;;;;;;;;;;;;;;;9.21;70.47;98123.39;106684;1256;61426;-82
2023/12/22 06:22:48;;;;;;;;;;;;;;;9.21;70.11;98123.11;106738;1258;59389;-90
2023/12/22 06:25:28;;;;;;;;;;;;;;;9.23;69.85;98116.39;107863;1254;73368;-81
2023/12/22 06:28:08;;;;;;;;;;;;;;;9.26;69.84;98113.08;106153;1255;70681;-90
2023/12/22 06:30:47;;;;;;;;;;;;;;;9.30;69.78;98110.85;106376;1258;72956;-90
2023/12/22 06:33:27;;;;;;;;;;;;;;;9.40;68.93;98120.27;106792;1257;61274;-81
2023/12/22 06:36:07;;;;;;;;;;;;;;;9.46;68.30;98118.27;106629;1255;61283;-91
2023/12/22 06:38:46;;;;;;;;;;;;;;;9.48;68.14;98117.17;106657;1253;72889;-81
2023/12/22 06:41:30;;;;;;;;;;;;;;;9.46;68.31;98111.48;106864;1258;67142;-82
2023/12/22 06:44:10;;;;;;;;;;;;;;;9.38;68.90;98108.27;106864;1258;72970;-81
2023/12/22 06:46:44;;;;;;;;;;;;;;;9.34;68.95;98099.26;106467;1254;61244;-82
2023/12/22 06:49:13;;;;;;;;;;;;;;;9.28;69.66;98103.34;106453;1253;61676;-81
2023/12/22 06:51:51;;;;;;;;;;;;;;;9.21;70.23;98105.89;106626;1253;75383;-82
2023/12/22 06:54:25;;;;;;;;;;;;;;;9.17;70.89;98114.91;106468;1258;68839;-81
2023/12/22 06:56:59;;;;;;;;;;;;;;;9.28;70.53;98109.45;106436;1258;72625;-81
2023/12/22 06:59:33;;;;;;;;;;;;;;;9.33;70.23;98109.48;106354;1259;61169;-81
2023/12/22 07:02:07;;;;;;;;;;;;;;;9.09;71.90;98102.12;106832;1254;61359;-81
2023/12/22 07:05:02;;;;;;;;;;;;;;;9.14;71.98;98098.77;106401;1253;74654;-81
2023/12/22 07:07:36;;;;;;;;;;;;;;;9.29;71.24;98089.63;107053;1258;68598;-81
2023/12/22 07:10:12;;;;;;;;;;;;;;;9.32;71.19;98085.92;106479;1258;71405;-79
2023/12/22 07:12:46;;;;;;;;;;;;;;;9.32;71.26;98085.48;106459;1254;61236;-79
2023/12/22 07:15:19;;;;;;;;;;;;;;;9.36;71.35;98079.52;106540;1258;61215;-79
2023/12/22 07:17:54;;;;;;;;;;;;;;;9.39;71.39;98078.41;106466;1255;74683;-81
2023/12/22 07:20:28;;;;;;;;;;;;;;;9.50;71.14;98076.48;106452;1259;68647;-79
2023/12/22 07:23:02;;;;;;;;;;;;;;;9.60;70.65;98080.21;106492;1257;71795;-83
2023/12/22 07:25:39;;;;;;;;;;;;;;;9.59;70.81;98084.17;106972;1259;61330;-79
2023/12/22 07:28:12;;;;;;;;;;;;;;;9.54;71.56;98077.50;106463;1258;61295;-79
2023/12/22 07:30:52;;;;;;;;;;;;;;;9.57;71.70;98066.64;106666;1260;74718;-80
2023/12/22 07:33:31;;;;;;;;;;;;;;;9.61;71.65;98065.79;106439;1258;67613;-80
2023/12/22 07:36:05;;;;;;;;;;;;;;;9.67;71.13;98068.52;106439;1258;73228;-80
2023/12/22 07:38:39;;;;;;;;;;;;;;;9.63;71.58;98071.95;106473;1255;62045;-80
2023/12/22 07:41:13;;;;;;;;;;;;;;;9.69;71.42;98072.55;106517;1258;61333;-80
2023/12/22 07:43:52;;;;;;;;;;;;;;;9.73;71.22;98065.57;106410;1255;74182;-80
2023/12/22 07:46:32;;;;;;;;;;;;;;;9.68;71.97;98066.31;106566;1258;69695;-80
2023/12/22 07:49:12;;;;;;;;;;;;;;;9.78;71.55;98071.34;106269;1258;72772;-80
2023/12/22 07:51:54;;;;;;;;;;;;;;;9.86;71.26;98069.55;106869;1258;61332;-80
2023/12/22 07:54:34;;;;;;;;;;;;;;;9.98;70.55;98066.96;106440;1255;61417;-80
2023/12/22 07:57:14;;;;;;;;;;;;;;;10.11;69.83;98069.67;106678;1254;73514;-81
2023/12/22 07:59:41;;;;;;;;;;;;;;;10.20;69.01;98068.64;106356;1257;67434;-80
2023/12/22 08:02:15;;;;;;;;;;;;;;;10.27;69.36;98065.59;106145;1258;71585;-80
2023/12/22 08:04:55;;;;;;;;;;;;;;;10.50;67.34;98060.58;106143;1255;61336;-80
2023/12/22 08:07:29;;;;;;;;;;;;;;;10.17;69.12;98054.08;106277;1254;61346;-80
2023/12/22 08:10:03;;;;;;;;;;;;;;;10.25;68.95;98040.56;106212;1255;74608;-80
2023/12/22 08:12:37;;;;;;;;;;;;;;;10.26;69.13;98046.35;106248;1254;67407;-81
2023/12/22 08:15:10;;;;;;;;;;;;;;;10.33;68.92;98045.29;106198;1259;71815;-80
2023/12/22 08:17:51;;;;;;;;;;;;;;;10.26;69.07;98049.88;106176;1258;61331;-80
2023/12/22 08:20:26;;;;;;;;;;;;;;;10.33;69.01;98048.73;106240;1259;222919;-80
2023/12/22 08:23:05;;;;;;;;;;;;;;;10.42;68.33;98048.42;106606;1257;74748;-80
2023/12/22 08:25:41;;;;;;;;;;;;;;;10.49;68.19;98051.34;106407;1257;70866;-80
2023/12/22 08:28:16;;;;;;;;;;;;;;;10.50;67.96;98042.23;106413;1263;71535;-80
2023/12/22 08:30:55;;;;;;;;;;;;;;;10.58;67.75;98035.02;106407;1257;61116;-81
2023/12/22 08:33:35;;;;;;;;;;;;;;;10.62;67.77;98030.02;106259;1255;61148;-80
2023/12/22 08:36:15;;;;;;;;;;;;;;;10.74;67.29;98030.56;106209;1258;73447;-80
2023/12/22 08:38:55;;;;;;;;;;;;;;;10.79;66.97;98023.21;106355;1254;68397;-80
2023/12/22 08:41:37;;;;;;;;;;;;;;;10.90;66.47;98021.02;106394;1257;72720;-80
2023/12/22 08:44:17;;;;;;;;;;;;;;;10.89;66.54;98023.72;106099;1254;61256;-80
2023/12/22 08:46:58;;;;;;;;;;;;;;;10.91;66.41;98014.73;106202;1258;61224;-80
2023/12/22 08:49:37;;;;;;;;;;;;;;;11.04;65.46;98007.17;106242;1258;72621;-81
2023/12/22 08:52:17;;;;;;;;;;;;;;;11.04;65.75;98000.30;106410;1254;68408;-81
2023/12/22 08:54:56;;;;;;;;;;;;;;;11.11;65.26;98002.48;106581;1257;74009;-81
2023/12/22 08:57:36;;;;;;;;;;;;;;;11.13;64.91;98005.44;106267;1260;62658;-81
2023/12/22 09:00:19;;;;;;;;;;;;;;;11.20;64.30;98019.16;106292;1254;61343;-80
2023/12/22 09:03:00;;;;;;;;;;;;;;;11.17;64.79;98024.23;106282;1259;73861;-80
2023/12/22 09:05:40;;;;;;;;;;;;;;;11.16;64.72;98019.29;106426;1258;69910;-80
2023/12/22 09:08:20;;;;;;;;;;;;;;;11.20;64.55;98014.02;106317;1254;71406;-80
2023/12/22 09:11:00;;;;;;;;;;;;;;;11.11;64.69;98010.45;106268;1255;61855;-81
2023/12/22 09:13:39;;;;;;;;;;;;;;;11.13;64.88;98014.19;106244;1254;61296;-80
2023/12/22 09:16:19;;;;;;;;;;;;;;;11.16;64.77;98007.64;106375;1254;73429;-80
2023/12/22 09:18:59;;;;;;;;;;;;;;;11.12;65.14;98000.18;106319;1259;70854;-80
2023/12/22 09:21:38;;;;;;;;;;;;;;;11.15;65.42;97997.93;106246;1255;73118;-80
2023/12/22 09:24:18;;;;;;;;;;;;;;;11.12;65.81;97990.50;106362;1261;61171;-80
2023/12/22 09:27:02;;;;;;;;;;;;;;;11.10;66.45;97990.73;106333;1254;61203;-80
2023/12/22 09:29:42;;;;;;;;;;;;;;;11.13;66.59;97984.77;106458;1254;75828;-80
2023/12/22 09:32:22;;;;;;;;;;;;;;;11.12;67.00;97982.61;106316;1260;66475;-81
2023/12/22 09:35:02;;;;;;;;;;;;;;;11.09;67.50;97980.40;106362;1257;74884;-81
2023/12/22 09:37:42;;;;;;;;;;;;;;;10.98;68.26;97974.27;106311;1258;61269;-80
2023/12/22 09:40:22;;;;;;;;;;;;;;;10.95;68.63;97964.98;106346;1254;61118;-80
2023/12/22 09:43:02;;;;;;;;;;;;;;;10.97;68.38;97960.14;106238;1253;73621;-80
2023/12/22 09:45:42;;;;;;;;;;;;;;;11.04;68.05;97953.61;106107;1256;68610;-80
2023/12/22 09:48:28;;;;;;;;;;;;;;;11.04;68.08;97947.38;106390;1254;74991;-81
2023/12/22 09:51:08;;;;;;;;;;;;;;;11.02;68.19;97944.67;106491;1253;61201;-81
2023/12/22 09:53:48;;;;;;;;;;;;;;;11.01;68.78;97935.56;106456;1260;61116;-80
2023/12/22 09:56:29;;;;;;;;;;;;;;;10.93;69.44;97929.54;106363;1259;76462;-80
2023/12/22 09:59:02;;;;;;;;;;;;;;;11.11;68.84;97924.09;106411;1254;67362;-80
2023/12/22 10:01:36;;;;;;;;;;;;;;;11.12;68.64;97915.62;106148;1259;73985;-80
2023/12/22 10:04:10;;;;;;;;;;;;;;;11.12;69.15;97912.48;106260;1254;61774;-80
2023/12/22 10:06:45;;;;;;;;;;;;;;;11.16;69.14;97909.64;106235;1253;61254;-80
2023/12/22 10:09:19;;;;;;;;;;;;;;;11.15;69.55;97909.07;106391;1257;76687;-79
2023/12/22 10:11:56;;;;;;;;;;;;;;;11.08;70.28;97901.13;106271;1254;68436;-79
2023/12/22 10:14:29;;;;;;;;;;;;;;;11.09;70.68;97893.66;106286;1255;71400;-80
2023/12/22 10:17:06;;;;;;;;;;;;;;;11.18;70.79;97893.45;106204;1257;61711;-80
2023/12/22 10:19:40;;;;;;;;;;;;;;;11.23;70.80;97889.13;106492;1254;61236;-80
2023/12/22 10:22:14;;;;;;;;;;;;;;;11.22;71.13;97884.27;106245;1258;75014;-79
2023/12/22 10:24:47;;;;;;;;;;;;;;;11.27;71.10;97883.24;106264;1254;69245;-80
2023/12/22 10:27:24;;;;;;;;;;;;;;;11.28;71.57;97877.73;106460;1254;73731;-80
2023/12/22 10:29:58;;;;;;;;;;;;;;;11.36;71.22;97872.96;106359;1254;61258;-80
2023/12/22 10:32:31;;;;;;;;;;;;;;;11.34;71.49;97867.11;106309;1254;61386;-80
2023/12/22 10:35:05;;;;;;;;;;;;;;;11.46;71.09;97869.95;106306;1253;75992;-80
2023/12/22 10:37:39;;;;;;;;;;;;;;;11.47;71.25;97865.20;106192;1257;67277;-80
2023/12/22 10:40:13;;;;;;;;;;;;;;;11.59;71.01;97860.31;106379;1255;74883;-80
2023/12/22 10:42:48;;;;;;;;;;;;;;;11.69;70.44;97855.82;106243;1256;63948;-80
2023/12/22 10:45:21;;;;;;;;;;;;;;;11.67;71.09;97856.24;106340;1254;61936;-80
2023/12/22 10:47:55;;;;;;;;;;;;;;;11.71;71.16;97861.52;106324;1253;75687;-79
2023/12/22 10:50:29;;;;;;;;;;;;;;;11.68;71.84;97856.16;106374;1253;70639;-80
2023/12/22 10:53:05;;;;;;;;;;;;;;;11.65;72.39;97850.94;106483;1254;73356;-80
2023/12/22 10:55:39;;;;;;;;;;;;;;;11.73;72.32;97850.45;106531;1253;64006;-80
2023/12/22 10:58:13;;;;;;;;;;;;;;;11.79;71.76;97845.70;106225;1258;61217;-80
2023/12/22 11:00:47;;;;;;;;;;;;;;;11.69;72.87;97845.73;106239;1254;75753;-80
2023/12/22 11:03:21;;;;;;;;;;;;;;;11.68;73.19;97838.43;106383;1254;67202;-79
2023/12/22 11:05:55;;;;;;;;;;;;;;;11.70;73.36;97840.52;106070;1254;71476;-80
2023/12/22 11:08:29;;;;;;;;;;;;;;;11.81;72.91;97841.38;106118;1254;62402;-79
2023/12/22 11:11:04;;;;;;;;;;;;;;;11.89;72.54;97847.30;106270;1254;61260;-80
2023/12/22 11:13:38;;;;;;;;;;;;;;;11.89;72.62;97850.13;106352;1260;75536;-80
2023/12/22 11:16:12;;;;;;;;;;;;;;;11.92;72.21;97846.21;106475;1254;66594;-80
2023/12/22 11:18:45;;;;;;;;;;;;;;;11.76;73.45;97843.02;106101;1259;73903;-80
2023/12/22 11:21:19;;;;;;;;;;;;;;;11.77;73.57;97832.73;106104;1259;61664;-80
2023/12/22 11:23:53;;;;;;;;;;;;;;;11.77;73.45;97827.89;106296;1254;62247;-80
2023/12/22 11:26:26;;;;;;;;;;;;;;;11.81;73.43;97827.05;106421;1253;74896;-79
2023/12/22 11:29:00;;;;;;;;;;;;;;;11.95;72.61;97822.75;106363;1260;70959;-80
2023/12/22 11:31:34;;;;;;;;;;;;;;;11.98;72.22;97819.95;106326;1254;73811;-80
2023/12/22 11:34:08;;;;;;;;;;;;;;;11.94;72.81;97818.83;106185;1254;64026;-80
2023/12/22 11:36:48;;;;;;;;;;;;;;;11.90;73.31;97819.91;106224;1253;61341;-80
2023/12/22 11:39:22;;;;;;;;;;;;;;;11.90;73.55;97809.72;106407;1256;76485;-80
2023/12/22 11:41:56;;;;;;;;;;;;;;;11.94;73.27;97812.18;106312;1254;70518;-80
2023/12/22 11:44:30;;;;;;;;;;;;;;;11.98;72.87;97810.00;106282;1254;73711;-80
2023/12/22 11:47:07;;;;;;;;;;;;;;;11.95;73.06;97810.18;106150;1259;63635;-80
2023/12/22 11:49:41;;;;;;;;;;;;;;;12.00;72.82;97810.30;106477;1258;61765;-80
2023/12/22 11:52:16;;;;;;;;;;;;;;;11.97;73.08;97805.69;106451;1259;75690;-80
2023/12/22 11:54:51;;;;;;;;;;;;;;;11.93;73.61;97805.44;106621;1253;71001;-80
2023/12/22 11:57:28;;;;;;;;;;;;;;;11.87;73.71;97807.67;106386;1254;72235;-80
2023/12/22 12:00:06;;;;;;;;;;;;;;;11.81;74.28;97809.02;106294;1259;63662;-80
2023/12/22 12:02:47;;;;;;;;;;;;;;;11.87;73.97;97810.04;106263;1253;61279;-80
2023/12/22 12:05:20;;;;;;;;;;;;;;;11.85;73.99;97810.59;106152;1253;76269;-80
2023/12/22 12:07:56;;;;;;;;;;;;;;;11.78;74.36;97809.23;106225;1254;70600;-80
2023/12/22 12:10:37;;;;;;;;;;;;;;;11.68;75.48;97799.82;106242;1260;73867;-80
2023/12/22 12:13:11;;;;;;;;;;;;;;;11.70;75.56;97792.55;106183;1257;63244;-80
2023/12/22 12:15:45;;;;;;;;;;;;;;;11.81;75.10;97793.70;106325;1253;61246;-80
2023/12/22 12:18:21;;;;;;;;;;;;;;;11.91;74.23;97794.05;106228;1253;73762;-81
2023/12/22 12:20:55;;;;;;;;;;;;;;;11.82;74.62;97795.44;106484;1254;71023;-81
2023/12/22 12:23:28;;;;;;;;;;;;;;;11.60;76.52;97797.20;106371;1253;71403;-81
2023/12/22 12:26:03;;;;;;;;;;;;;;;11.56;76.99;97794.44;106258;1256;61289;-81
2023/12/22 12:28:36;;;;;;;;;;;;;;;11.59;76.89;97796.39;106045;1254;61136;-81
2023/12/22 12:31:10;;;;;;;;;;;;;;;11.54;77.62;97795.41;106367;1253;73780;-81
2023/12/22 12:33:50;;;;;;;;;;;;;;;11.68;76.89;97793.41;106227;1254;68694;-81
2023/12/22 12:36:24;;;;;;;;;;;;;;;11.79;76.19;97791.43;106426;1254;74339;-81
2023/12/22 12:38:58;;;;;;;;;;;;;;;11.66;76.92;97788.98;106300;1253;64010;-80
2023/12/22 12:41:39;;;;;;;;;;;;;;;11.48;78.47;97787.83;106174;1258;61753;-80
2023/12/22 12:44:19;;;;;;;;;;;;;;;11.43;79.01;97784.34;106237;1253;75771;-80
2023/12/22 12:46:52;;;;;;;;;;;;;;;11.50;78.83;97784.52;106204;1253;70652;-80
2023/12/22 12:49:29;;;;;;;;;;;;;;;11.56;78.45;97787.17;106274;1254;72741;-81
2023/12/22 12:52:09;;;;;;;;;;;;;;;11.46;78.87;97777.67;106595;1254;61939;-81
2023/12/22 12:54:49;;;;;;;;;;;;;;;11.49;78.60;97775.42;106505;1253;61264;-81
2023/12/22 12:57:22;;;;;;;;;;;;;;;11.43;79.02;97771.45;106478;1253;75910;-81
2023/12/22 12:59:56;;;;;;;;;;;;;;;11.39;79.67;97771.42;106311;1259;66316;-81
2023/12/22 13:02:33;;;;;;;;;;;;;;;11.37;79.68;97765.44;106357;1258;73854;-81
2023/12/22 13:05:04;;;;;;;;;;;;;;;11.38;80.04;97763.73;106451;1254;61913;-81
2023/12/22 13:07:34;;;;;;;;;;;;;;;11.42;79.79;97763.07;106218;1253;61430;-81
2023/12/22 13:10:07;;;;;;;;;;;;;;;11.49;79.28;97755.73;106236;1259;74639;-81
2023/12/22 13:12:46;;;;;;;;;;;;;;;11.44;79.54;97757.56;106291;1258;69950;-81
2023/12/22 13:15:21;;;;;;;;;;;;;;;11.39;80.02;97757.36;106274;1254;74732;-81
2023/12/22 13:17:48;;;;;;;;;;;;;;;11.41;79.82;97760.92;106279;1258;62580;-81
2023/12/22 13:20:22;;;;;;;;;;;;;;;11.42;80.12;97763.91;106389;1253;61229;-81
2023/12/22 13:23:02;;;;;;;;;;;;;;;11.40;80.19;97763.16;106581;1254;74559;-81
2023/12/22 13:25:46;;;;;;;;;;;;;;;11.32;80.77;97764.73;106416;1253;69380;-81
2023/12/22 13:28:27;;;;;;;;;;;;;;;11.46;80.12;97759.73;106511;1254;74965;-82
2023/12/22 13:31:01;;;;;;;;;;;;;;;11.38;80.70;97753.49;106191;1254;62525;-81
2023/12/22 13:33:35;;;;;;;;;;;;;;;11.40;80.77;97754.02;106170;1254;61332;-81
2023/12/22 13:36:09;;;;;;;;;;;;;;;11.52;79.58;97753.08;106315;1254;73360;-81
2023/12/22 13:38:55;;;;;;;;;;;;;;;11.56;79.15;97756.16;106296;1259;69855;-81
2023/12/22 13:41:28;;;;;;;;;;;;;;;11.45;79.67;97757.83;106369;1255;74664;-81
2023/12/22 13:44:03;;;;;;;;;;;;;;;11.49;79.87;97760.20;106500;1257;61730;-81
2023/12/22 13:46:43;;;;;;;;;;;;;;;11.51;79.80;97757.36;106495;1253;61468;-80
2023/12/22 13:49:23;;;;;;;;;;;;;;;11.49;80.03;97757.20;106429;1253;76609;-80
2023/12/22 13:51:58;;;;;;;;;;;;;;;11.33;81.25;97757.98;106730;1253;70802;-81
2023/12/22 13:54:37;;;;;;;;;;;;;;;11.45;80.66;97757.65;106663;1253;75359;-81
2023/12/22 13:57:25;;;;;;;;;;;;;;;11.51;80.14;97750.58;106766;1258;62779;-81
2023/12/22 13:59:59;;;;;;;;;;;;;;;11.45;80.52;97762.34;107230;1253;61113;-81
2023/12/22 14:02:33;;;;;;;;;;;;;;;11.40;81.10;97760.58;106740;1252;75814;-81
2023/12/22 14:05:07;;;;;;;;;;;;;;;11.52;80.47;97765.42;106532;1253;67859;-81
2023/12/22 14:07:47;;;;;;;;;;;;;;;11.47;80.59;97764.20;106212;1259;71114;-80
2023/12/22 14:10:26;;;;;;;;;;;;;;;11.44;81.01;97765.05;106386;1259;63185;-82
2023/12/22 14:12:59;;;;;;;;;;;;;;;11.63;79.96;97758.43;106429;1255;61235;-82
2023/12/22 14:15:33;;;;;;;;;;;;;;;11.52;80.28;97750.59;106579;1253;73355;-82
2023/12/22 14:18:10;;;;;;;;;;;;;;;11.41;81.78;97747.16;106379;1255;67189;-81
2023/12/22 14:20:51;;;;;;;;;;;;;;;11.58;80.86;97743.85;106626;1254;75076;-81
2023/12/22 14:23:25;;;;;;;;;;;;;;;11.40;81.98;97743.08;106468;1254;63716;-81
2023/12/22 14:25:53;;;;;;;;;;;;;;;11.49;81.47;97741.06;106514;1254;61282;-81
2023/12/22 14:28:27;;;;;;;;;;;;;;;11.39;81.80;97743.36;106617;1253;75725;-81
2023/12/22 14:31:01;;;;;;;;;;;;;;;11.22;83.33;97742.46;106646;1254;67538;-80
2023/12/22 14:33:29;;;;;;;;;;;;;;;11.27;83.52;97746.08;106437;1254;75011;-81
2023/12/22 14:36:09;;;;;;;;;;;;;;;11.36;83.09;97749.45;106453;1259;62124;-81
2023/12/22 14:38:49;;;;;;;;;;;;;;;11.42;82.80;97752.98;106599;1253;62122;-81
2023/12/22 14:41:28;;;;;;;;;;;;;;;11.43;82.94;97760.19;106475;1253;75349;-81
2023/12/22 14:44:02;;;;;;;;;;;;;;;11.44;82.87;97763.89;106454;1254;68528;-81
2023/12/22 14:46:36;;;;;;;;;;;;;;;11.53;82.19;97765.23;106358;1254;74917;-81
2023/12/22 14:49:10;;;;;;;;;;;;;;;11.53;82.21;97759.74;106964;1253;61348;-81
2023/12/22 14:51:53;;;;;;;;;;;;;;;11.42;83.31;97762.59;109008;1253;60919;-79
2023/12/22 14:54:28;;;;;;;;;;;;;;;11.43;83.25;97761.19;109093;1253;76742;-79
2023/12/22 14:57:07;;;;;;;;;;;;;;;11.41;83.45;97758.20;107094;1253;70643;-78
2023/12/22 14:59:41;;;;;;;;;;;;;;;11.45;83.32;97760.00;106459;1254;72694;-79
2023/12/22 15:02:09;;;;;;;;;;;;;;;11.40;83.52;97764.27;106149;1258;62731;-81
2023/12/22 15:04:36;;;;;;;;;;;;;;;11.36;83.80;97755.55;106201;1253;61327;-81
2023/12/22 15:07:20;;;;;;;;;;;;;;;11.31;84.30;97744.80;108319;1255;75415;-81
2023/12/22 15:09:54;;;;;;;;;;;;;;;11.36;84.08;97738.31;106333;1254;68382;-80
2023/12/22 15:12:32;;;;;;;;;;;;;;;11.28;84.45;97738.40;106178;1254;74966;-80
2023/12/22 15:15:00;;;;;;;;;;;;;;;11.26;85.00;97745.21;106250;1254;61695;-80
2023/12/22 15:17:34;;;;;;;;;;;;;;;11.32;84.28;97747.86;106277;1253;61375;-80
2023/12/22 15:20:08;;;;;;;;;;;;;;;11.34;84.35;97749.96;106287;1253;75474;-80
2023/12/22 15:22:45;;;;;;;;;;;;;;;11.35;84.15;97756.93;106201;1258;68255;-81
2023/12/22 15:25:13;;;;;;;;;;;;;;;11.28;84.32;97756.27;106300;1254;74964;-80
2023/12/22 15:27:47;;;;;;;;;;;;;;;11.33;84.16;97747.19;106332;1254;64051;-80
2023/12/22 15:30:28;;;;;;;;;;;;;;;11.38;83.60;97748.73;106666;1255;61144;-81
2023/12/22 15:33:08;;;;;;;;;;;;;;;11.36;83.38;97748.23;106254;1258;73391;-81
2023/12/22 15:35:48;;;;;;;;;;;;;;;11.38;83.34;97747.24;106311;1253;68563;-80
2023/12/22 15:38:27;;;;;;;;;;;;;;;11.33;83.42;97746.57;106173;1254;72656;-80
2023/12/22 15:41:07;;;;;;;;;;;;;;;11.29;83.48;97748.55;106165;1256;63252;-79
2023/12/22 15:43:41;;;;;;;;;;;;;;;11.26;83.95;97744.14;106207;1258;61430;-79
2023/12/22 15:46:15;;;;;;;;;;;;;;;11.34;83.29;97749.55;106308;1254;76777;-79
2023/12/22 15:48:54;;;;;;;;;;;;;;;11.29;83.37;97746.99;106094;1259;67652;-80
2023/12/22 15:51:34;;;;;;;;;;;;;;;11.41;82.35;97747.55;106224;1258;72649;-80
2023/12/22 15:54:08;;;;;;;;;;;;;;;11.40;82.29;97751.36;106413;1253;61166;-80
2023/12/22 15:56:42;;;;;;;;;;;;;;;11.27;83.00;97754.29;106250;1253;61359;-80
2023/12/22 15:59:25;;;;;;;;;;;;;;;11.31;82.84;97747.07;106225;1254;73390;-80
2023/12/22 16:01:59;;;;;;;;;;;;;;;11.33;82.59;97751.02;106107;1253;70641;-80
2023/12/22 16:04:33;;;;;;;;;;;;;;;11.30;82.41;97755.86;106160;1254;75091;-80
2023/12/22 16:07:01;;;;;;;;;;;;;;;11.34;81.87;97754.86;106193;1254;64426;-80
2023/12/22 16:09:41;;;;;;;;;;;;;;;11.31;81.89;97751.66;106203;1253;61279;-80
2023/12/22 16:12:15;;;;;;;;;;;;;;;11.23;82.61;97752.16;106175;1255;76772;-80
2023/12/22 16:14:48;;;;;;;;;;;;;;;11.29;82.17;97754.18;106167;1258;70639;-80
2023/12/22 16:17:22;;;;;;;;;;;;;;;11.26;81.80;97749.73;106190;1256;73694;-81
2023/12/22 16:19:56;;;;;;;;;;;;;;;11.13;82.29;97747.45;106231;1253;64132;-81
2023/12/22 16:22:31;;;;;;;;;;;;;;;11.09;82.47;97748.64;106322;1256;61230;-79
2023/12/22 16:25:06;;;;;;;;;;;;;;;10.97;83.00;97753.23;106299;1254;76726;-79
2023/12/22 16:27:39;;;;;;;;;;;;;;;10.91;83.53;97755.64;106240;1255;69655;-79
2023/12/22 16:30:14;;;;;;;;;;;;;;;10.99;82.65;97755.96;106353;1258;73159;-80
2023/12/22 20:33:56;;;;;;;;;;;;;;;10.19;84.41;97827.94;106312;1258;62044;-81
2023/12/22 20:36:37;;;;;;;;;;;;;;;10.23;84.09;97825.19;106470;1256;61144;-81
2023/12/22 20:39:17;;;;;;;;;;;;;;;10.25;83.42;97823.94;106422;1256;76446;-81
2023/12/22 20:41:45;;;;;;;;;;;;;;;10.32;82.50;97824.56;106327;1253;70406;-82
2023/12/22 20:44:26;;;;;;;;;;;;;;;10.34;81.88;97822.84;106444;1256;74935;-81
2023/12/22 20:47:05;;;;;;;;;;;;;;;10.27;81.56;97824.02;106890;1253;61205;-81
2023/12/22 20:49:45;;;;;;;;;;;;;;;10.25;81.39;97821.92;106260;1255;63613;-81
2023/12/22 20:52:13;;;;;;;;;;;;;;;10.25;80.84;97819.71;106560;1253;75776;-82
2023/12/22 20:54:53;;;;;;;;;;;;;;;10.30;79.87;97821.33;106629;1258;68643;-82
2023/12/22 20:57:33;;;;;;;;;;;;;;;10.26;79.55;97820.15;106460;1256;73954;-82
2023/12/22 21:00:07;;;;;;;;;;;;;;;10.29;79.04;97829.38;106332;1255;61493;-81
2023/12/22 21:02:40;;;;;;;;;;;;;;;10.26;78.37;97830.06;106285;1256;61299;-82
2023/12/22 21:05:18;;;;;;;;;;;;;;;10.24;77.93;97827.80;106344;1258;76653;-81
2023/12/22 21:07:52;;;;;;;;;;;;;;;10.11;78.21;97828.55;106148;1258;68873;-81
2023/12/22 21:10:26;;;;;;;;;;;;;;;10.03;78.38;97829.45;106538;1253;71180;-81
2023/12/22 21:12:54;;;;;;;;;;;;;;;9.96;78.30;97823.70;106329;1258;61349;-82
2023/12/22 21:15:34;;;;;;;;;;;;;;;9.80;79.38;97824.80;106300;1258;61337;-81
2023/12/22 21:18:09;;;;;;;;;;;;;;;9.71;79.93;97826.89;106244;1256;74623;-82
2023/12/22 21:20:43;;;;;;;;;;;;;;;9.75;79.40;97828.90;106382;1253;69660;-82
2023/12/22 21:23:17;;;;;;;;;;;;;;;9.67;79.83;97841.79;106226;1253;72730;-81
2023/12/22 21:25:51;;;;;;;;;;;;;;;9.57;80.56;97843.01;106250;1256;62033;-82
2023/12/22 21:28:25;;;;;;;;;;;;;;;9.46;81.35;97840.16;106539;1256;61180;-81
2023/12/22 21:30:58;;;;;;;;;;;;;;;9.43;81.15;97839.10;106317;1253;74626;-81
2023/12/22 21:33:32;;;;;;;;;;;;;;;9.37;81.19;97844.16;106223;1253;68514;-81
2023/12/22 21:36:06;;;;;;;;;;;;;;;9.35;80.78;97849.38;106361;1256;73121;-81
2023/12/22 21:38:39;;;;;;;;;;;;;;;9.30;80.29;97852.73;106205;1256;61226;-82
2023/12/22 21:41:15;;;;;;;;;;;;;;;9.27;80.04;97849.35;106567;1255;61326;-81
2023/12/22 21:43:51;;;;;;;;;;;;;;;9.28;79.23;97857.23;106587;1254;74695;-81
2023/12/22 21:46:25;;;;;;;;;;;;;;;9.27;78.52;97864.30;106381;1256;67266;-81
2023/12/22 21:48:59;;;;;;;;;;;;;;;9.12;79.10;97860.56;106226;1253;71422;-83
2023/12/22 21:51:32;;;;;;;;;;;;;;;9.12;78.77;97862.10;106450;1258;61203;-81
2023/12/22 21:54:07;;;;;;;;;;;;;;;9.05;78.99;97856.55;106522;1258;61271;-81
2023/12/22 21:56:40;;;;;;;;;;;;;;;8.79;81.68;97859.02;106547;1257;74774;-81